North Marlton, New Jersey
Current Conditions -  °F | °C
As of 9:23 PM on Wednesday 26 Nov 2014 (Local Time) from KVAY Reporting Station
Unknown Precip Unknown Precip  
Wind Chill: 28°   Ceiling: 1100
Heat Index: 36°   Visibility: 8mi
Dew Point: 33°   Wind: 10mph
Humidity: 89%   Direction: 320°NW
Pressure: 29.85"   Gusts: NA
Location:  39.8786°N, 74.8969°W
Report Text: KVAY 270223Z AUTO 32009KT 8SM UP BKN011 OVC036 02/01 A2985 RMK AO2 UPB02SNE02B15E21 P0001 T00220006
Loading
Personal Weather Stations






























Interactive Weather Map New forecast layout! Learn more

10-Day Weather Forecast

Advertisements
Track Severe Weather on mobile